sensor_id;sensor_type;location;lat;lon;timestamp;P1;durP1;ratioP1;P2;durP2;ratioP2
29934;SDS011;19905;53.370;-6.314;2023-06-22T00:00:36;3.95;;;2.75;;
29934;SDS011;19905;53.370;-6.314;2023-06-22T00:03:05;5.82;;;3.17;;
29934;SDS011;19905;53.370;-6.314;2023-06-22T00:05:34;7.10;;;2.67;;
29934;SDS011;19905;53.370;-6.314;2023-06-22T00:08:03;6.63;;;2.92;;
29934;SDS011;19905;53.370;-6.314;2023-06-22T00:10:32;5.13;;;2.60;;
29934;SDS011;19905;53.370;-6.314;2023-06-22T00:13:03;5.40;;;2.40;;
29934;SDS011;19905;53.370;-6.314;2023-06-22T00:15:32;7.63;;;2.72;;
29934;SDS011;19905;53.370;-6.314;2023-06-22T00:18:01;8.48;;;2.60;;
29934;SDS011;19905;53.370;-6.314;2023-06-22T00:20:30;6.38;;;2.70;;
29934;SDS011;19905;53.370;-6.314;2023-06-22T00:22:59;6.40;;;3.15;;
29934;SDS011;19905;53.370;-6.314;2023-06-22T00:25:27;5.53;;;2.88;;
29934;SDS011;19905;53.370;-6.314;2023-06-22T00:27:56;7.70;;;2.90;;
29934;SDS011;19905;53.370;-6.314;2023-06-22T00:30:26;5.47;;;2.97;;
29934;SDS011;19905;53.370;-6.314;2023-06-22T00:32:56;5.93;;;2.97;;
29934;SDS011;19905;53.370;-6.314;2023-06-22T00:35:25;5.10;;;2.63;;
29934;SDS011;19905;53.370;-6.314;2023-06-22T00:37:55;7.43;;;2.95;;
29934;SDS011;19905;53.370;-6.314;2023-06-22T00:40:27;5.57;;;2.85;;
29934;SDS011;19905;53.370;-6.314;2023-06-22T00:42:56;6.07;;;2.60;;
29934;SDS011;19905;53.370;-6.314;2023-06-22T00:45:27;6.97;;;2.75;;
29934;SDS011;19905;53.370;-6.314;2023-06-22T00:47:56;7.25;;;3.05;;
29934;SDS011;19905;53.370;-6.314;2023-06-22T00:50:28;8.05;;;3.20;;
29934;SDS011;19905;53.370;-6.314;2023-06-22T00:53:03;5.68;;;3.05;;
29934;SDS011;19905;53.370;-6.314;2023-06-22T00:55:36;10.73;;;3.10;;
29934;SDS011;19905;53.370;-6.314;2023-06-22T00:58:10;5.72;;;2.97;;
29934;SDS011;19905;53.370;-6.314;2023-06-22T01:00:41;6.00;;;3.00;;
29934;SDS011;19905;53.370;-6.314;2023-06-22T01:03:10;12.80;;;3.33;;
29934;SDS011;19905;53.370;-6.314;2023-06-22T01:05:39;7.05;;;3.17;;
29934;SDS011;19905;53.370;-6.314;2023-06-22T01:08:21;7.38;;;3.13;;
29934;SDS011;19905;53.370;-6.314;2023-06-22T01:10:59;8.10;;;3.40;;
29934;SDS011;19905;53.370;-6.314;2023-06-22T01:13:45;8.20;;;3.00;;
29934;SDS011;19905;53.370;-6.314;2023-06-22T01:16:23;6.60;;;3.25;;
29934;SDS011;19905;53.370;-6.314;2023-06-22T01:18:55;9.02;;;3.38;;
29934;SDS011;19905;53.370;-6.314;2023-06-22T01:21:28;6.45;;;3.42;;
29934;SDS011;19905;53.370;-6.314;2023-06-22T01:24:02;6.72;;;3.17;;
29934;SDS011;19905;53.370;-6.314;2023-06-22T01:26:45;9.68;;;3.63;;
29934;SDS011;19905;53.370;-6.314;2023-06-22T01:29:24;7.22;;;3.15;;
29934;SDS011;19905;53.370;-6.314;2023-06-22T01:31:54;7.35;;;3.15;;
29934;SDS011;19905;53.370;-6.314;2023-06-22T01:34:25;5.25;;;3.25;;
29934;SDS011;19905;53.370;-6.314;2023-06-22T01:36:55;7.15;;;3.13;;
29934;SDS011;19905;53.370;-6.314;2023-06-22T01:39:24;9.05;;;3.10;;
29934;SDS011;19905;53.370;-6.314;2023-06-22T01:41:54;12.00;;;3.60;;
29934;SDS011;19905;53.370;-6.314;2023-06-22T01:44:25;6.13;;;3.13;;
29934;SDS011;19905;53.370;-6.314;2023-06-22T01:46:54;7.55;;;3.30;;
29934;SDS011;19905;53.370;-6.314;2023-06-22T01:49:23;7.10;;;3.17;;
29934;SDS011;19905;53.370;-6.314;2023-06-22T01:51:52;5.55;;;3.45;;
29934;SDS011;19905;53.370;-6.314;2023-06-22T01:54:22;6.10;;;3.53;;
29934;SDS011;19905;53.370;-6.314;2023-06-22T01:56:50;7.90;;;3.30;;
29934;SDS011;19905;53.370;-6.314;2023-06-22T01:59:22;10.23;;;3.33;;
29934;SDS011;19905;53.370;-6.314;2023-06-22T02:01:58;8.93;;;3.40;;
29934;SDS011;19905;53.370;-6.314;2023-06-22T02:04:31;7.38;;;3.30;;
29934;SDS011;19905;53.370;-6.314;2023-06-22T02:07:05;6.18;;;3.03;;
29934;SDS011;19905;53.370;-6.314;2023-06-22T02:09:38;7.43;;;3.53;;
29934;SDS011;19905;53.370;-6.314;2023-06-22T02:12:10;9.57;;;3.42;;
29934;SDS011;19905;53.370;-6.314;2023-06-22T02:14:42;6.28;;;3.35;;
29934;SDS011;19905;53.370;-6.314;2023-06-22T02:17:13;6.47;;;3.70;;
29934;SDS011;19905;53.370;-6.314;2023-06-22T02:19:42;5.70;;;3.80;;
29934;SDS011;19905;53.370;-6.314;2023-06-22T02:22:10;8.88;;;3.75;;
29934;SDS011;19905;53.370;-6.314;2023-06-22T02:24:40;9.02;;;3.72;;
29934;SDS011;19905;53.370;-6.314;2023-06-22T02:27:10;11.00;;;3.60;;
29934;SDS011;19905;53.370;-6.314;2023-06-22T02:29:39;7.45;;;3.65;;
29934;SDS011;19905;53.370;-6.314;2023-06-22T02:32:10;7.43;;;3.92;;
29934;SDS011;19905;53.370;-6.314;2023-06-22T02:34:38;5.13;;;3.53;;
29934;SDS011;19905;53.370;-6.314;2023-06-22T02:37:07;7.63;;;3.75;;
29934;SDS011;19905;53.370;-6.314;2023-06-22T02:39:37;7.70;;;3.92;;
29934;SDS011;19905;53.370;-6.314;2023-06-22T02:42:07;7.95;;;3.78;;
29934;SDS011;19905;53.370;-6.314;2023-06-22T02:44:37;7.82;;;4.00;;
29934;SDS011;19905;53.370;-6.314;2023-06-22T02:47:07;8.27;;;4.07;;
29934;SDS011;19905;53.370;-6.314;2023-06-22T02:49:36;7.88;;;3.58;;
29934;SDS011;19905;53.370;-6.314;2023-06-22T02:52:05;7.45;;;3.70;;
29934;SDS011;19905;53.370;-6.314;2023-06-22T02:54:34;7.63;;;4.07;;
29934;SDS011;19905;53.370;-6.314;2023-06-22T02:57:02;10.48;;;4.20;;
29934;SDS011;19905;53.370;-6.314;2023-06-22T02:59:32;7.38;;;3.83;;
29934;SDS011;19905;53.370;-6.314;2023-06-22T03:02:01;9.02;;;3.95;;
29934;SDS011;19905;53.370;-6.314;2023-06-22T03:04:32;8.48;;;3.88;;
29934;SDS011;19905;53.370;-6.314;2023-06-22T03:07:01;6.25;;;3.97;;
29934;SDS011;19905;53.370;-6.314;2023-06-22T03:09:32;7.55;;;4.15;;
29934;SDS011;19905;53.370;-6.314;2023-06-22T03:12:00;6.15;;;3.72;;
29934;SDS011;19905;53.370;-6.314;2023-06-22T03:14:29;6.97;;;3.63;;
29934;SDS011;19905;53.370;-6.314;2023-06-22T03:16:58;7.93;;;3.90;;
29934;SDS011;19905;53.370;-6.314;2023-06-22T03:19:30;5.32;;;3.35;;
29934;SDS011;19905;53.370;-6.314;2023-06-22T03:22:01;6.57;;;3.55;;
29934;SDS011;19905;53.370;-6.314;2023-06-22T03:24:29;5.18;;;3.58;;
29934;SDS011;19905;53.370;-6.314;2023-06-22T03:26:59;8.30;;;3.85;;
29934;SDS011;19905;53.370;-6.314;2023-06-22T03:29:31;6.50;;;3.85;;
29934;SDS011;19905;53.370;-6.314;2023-06-22T03:32:04;9.07;;;3.97;;
29934;SDS011;19905;53.370;-6.314;2023-06-22T03:34:33;7.88;;;3.88;;
29934;SDS011;19905;53.370;-6.314;2023-06-22T03:37:05;6.35;;;4.07;;
29934;SDS011;19905;53.370;-6.314;2023-06-22T03:39:34;9.30;;;4.18;;
29934;SDS011;19905;53.370;-6.314;2023-06-22T03:42:05;7.28;;;3.80;;
29934;SDS011;19905;53.370;-6.314;2023-06-22T03:44:34;10.02;;;4.28;;
29934;SDS011;19905;53.370;-6.314;2023-06-22T03:47:04;7.40;;;3.67;;
29934;SDS011;19905;53.370;-6.314;2023-06-22T03:49:33;6.15;;;4.07;;
29934;SDS011;19905;53.370;-6.314;2023-06-22T03:52:02;8.07;;;4.60;;
29934;SDS011;19905;53.370;-6.314;2023-06-22T03:54:33;7.80;;;4.25;;
29934;SDS011;19905;53.370;-6.314;2023-06-22T03:57:02;6.65;;;3.95;;
29934;SDS011;19905;53.370;-6.314;2023-06-22T03:59:31;10.25;;;4.10;;
29934;SDS011;19905;53.370;-6.314;2023-06-22T04:02:00;9.35;;;4.15;;
29934;SDS011;19905;53.370;-6.314;2023-06-22T04:04:29;6.32;;;3.67;;
29934;SDS011;19905;53.370;-6.314;2023-06-22T04:06:58;8.68;;;4.30;;
29934;SDS011;19905;53.370;-6.314;2023-06-22T04:09:28;7.95;;;4.40;;
29934;SDS011;19905;53.370;-6.314;2023-06-22T04:11:57;7.95;;;3.63;;
29934;SDS011;19905;53.370;-6.314;2023-06-22T04:14:26;6.60;;;3.83;;
29934;SDS011;19905;53.370;-6.314;2023-06-22T04:16:54;8.85;;;3.75;;
29934;SDS011;19905;53.370;-6.314;2023-06-22T04:19:23;6.88;;;4.20;;
29934;SDS011;19905;53.370;-6.314;2023-06-22T04:21:52;7.50;;;4.47;;
29934;SDS011;19905;53.370;-6.314;2023-06-22T04:24:21;6.57;;;4.15;;
29934;SDS011;19905;53.370;-6.314;2023-06-22T04:26:51;9.23;;;4.43;;
29934;SDS011;19905;53.370;-6.314;2023-06-22T04:29:21;7.35;;;4.65;;
29934;SDS011;19905;53.370;-6.314;2023-06-22T04:31:55;10.50;;;4.35;;
29934;SDS011;19905;53.370;-6.314;2023-06-22T04:34:25;7.68;;;4.60;;
29934;SDS011;19905;53.370;-6.314;2023-06-22T04:36:54;8.32;;;4.43;;
29934;SDS011;19905;53.370;-6.314;2023-06-22T04:39:23;8.73;;;4.57;;
29934;SDS011;19905;53.370;-6.314;2023-06-22T04:41:55;7.32;;;4.45;;
29934;SDS011;19905;53.370;-6.314;2023-06-22T04:44:27;8.93;;;4.18;;
29934;SDS011;19905;53.370;-6.314;2023-06-22T04:46:56;10.88;;;4.68;;
29934;SDS011;19905;53.370;-6.314;2023-06-22T04:49:29;9.95;;;4.47;;
29934;SDS011;19905;53.370;-6.314;2023-06-22T04:52:03;6.65;;;3.72;;
29934;SDS011;19905;53.370;-6.314;2023-06-22T04:54:33;8.38;;;4.57;;
29934;SDS011;19905;53.370;-6.314;2023-06-22T04:57:05;8.02;;;4.50;;
29934;SDS011;19905;53.370;-6.314;2023-06-22T04:59:37;8.93;;;4.18;;
29934;SDS011;19905;53.370;-6.314;2023-06-22T05:02:08;8.23;;;4.60;;
29934;SDS011;19905;53.370;-6.314;2023-06-22T05:04:37;10.52;;;5.25;;
29934;SDS011;19905;53.370;-6.314;2023-06-22T05:07:07;18.73;;;8.52;;
29934;SDS011;19905;53.370;-6.314;2023-06-22T05:09:36;14.23;;;8.85;;
29934;SDS011;19905;53.370;-6.314;2023-06-22T05:12:07;15.30;;;8.73;;
29934;SDS011;19905;53.370;-6.314;2023-06-22T05:14:37;15.90;;;9.25;;
29934;SDS011;19905;53.370;-6.314;2023-06-22T05:17:05;17.98;;;9.02;;
29934;SDS011;19905;53.370;-6.314;2023-06-22T05:19:42;21.00;;;9.57;;
29934;SDS011;19905;53.370;-6.314;2023-06-22T05:22:12;18.88;;;10.27;;
29934;SDS011;19905;53.370;-6.314;2023-06-22T05:24:41;21.42;;;10.27;;
29934;SDS011;19905;53.370;-6.314;2023-06-22T05:27:11;19.70;;;10.65;;
29934;SDS011;19905;53.370;-6.314;2023-06-22T05:29:40;23.20;;;10.77;;
29934;SDS011;19905;53.370;-6.314;2023-06-22T05:32:09;16.15;;;10.73;;
29934;SDS011;19905;53.370;-6.314;2023-06-22T05:34:38;26.17;;;10.43;;
29934;SDS011;19905;53.370;-6.314;2023-06-22T05:37:07;15.13;;;9.77;;
29934;SDS011;19905;53.370;-6.314;2023-06-22T05:39:36;17.10;;;9.60;;
29934;SDS011;19905;53.370;-6.314;2023-06-22T05:42:06;17.50;;;8.60;;
29934;SDS011;19905;53.370;-6.314;2023-06-22T05:44:38;17.80;;;9.35;;
29934;SDS011;19905;53.370;-6.314;2023-06-22T05:47:07;19.55;;;8.55;;
29934;SDS011;19905;53.370;-6.314;2023-06-22T05:49:36;18.05;;;8.55;;
29934;SDS011;19905;53.370;-6.314;2023-06-22T05:52:04;17.95;;;8.82;;
29934;SDS011;19905;53.370;-6.314;2023-06-22T05:54:34;16.83;;;8.95;;
29934;SDS011;19905;53.370;-6.314;2023-06-22T05:57:03;18.33;;;8.57;;
29934;SDS011;19905;53.370;-6.314;2023-06-22T05:59:32;18.17;;;8.75;;
29934;SDS011;19905;53.370;-6.314;2023-06-22T06:02:02;16.40;;;8.63;;
29934;SDS011;19905;53.370;-6.314;2023-06-22T06:04:32;18.27;;;9.07;;
29934;SDS011;19905;53.370;-6.314;2023-06-22T06:07:03;19.48;;;9.10;;
29934;SDS011;19905;53.370;-6.314;2023-06-22T06:09:32;18.25;;;8.38;;
29934;SDS011;19905;53.370;-6.314;2023-06-22T06:12:05;13.25;;;8.07;;
29934;SDS011;19905;53.370;-6.314;2023-06-22T06:14:36;16.10;;;8.55;;
29934;SDS011;19905;53.370;-6.314;2023-06-22T06:17:07;16.45;;;8.38;;
29934;SDS011;19905;53.370;-6.314;2023-06-22T06:19:36;17.27;;;8.40;;
29934;SDS011;19905;53.370;-6.314;2023-06-22T06:22:06;12.18;;;7.40;;
29934;SDS011;19905;53.370;-6.314;2023-06-22T06:24:36;16.52;;;8.80;;
29934;SDS011;19905;53.370;-6.314;2023-06-22T06:27:04;16.02;;;8.02;;
29934;SDS011;19905;53.370;-6.314;2023-06-22T06:29:34;15.70;;;8.13;;
29934;SDS011;19905;53.370;-6.314;2023-06-22T06:32:03;13.52;;;8.05;;
29934;SDS011;19905;53.370;-6.314;2023-06-22T06:34:35;11.77;;;7.70;;
29934;SDS011;19905;53.370;-6.314;2023-06-22T06:37:04;11.02;;;7.32;;
29934;SDS011;19905;53.370;-6.314;2023-06-22T06:39:32;12.77;;;7.00;;
29934;SDS011;19905;53.370;-6.314;2023-06-22T06:42:02;15.00;;;7.50;;
29934;SDS011;19905;53.370;-6.314;2023-06-22T06:44:35;12.32;;;7.07;;
29934;SDS011;19905;53.370;-6.314;2023-06-22T06:47:10;14.77;;;8.02;;
29934;SDS011;19905;53.370;-6.314;2023-06-22T06:49:40;14.57;;;7.55;;
29934;SDS011;19905;53.370;-6.314;2023-06-22T06:52:10;12.70;;;7.28;;
29934;SDS011;19905;53.370;-6.314;2023-06-22T06:54:41;12.45;;;7.25;;
29934;SDS011;19905;53.370;-6.314;2023-06-22T06:57:16;13.60;;;7.53;;
29934;SDS011;19905;53.370;-6.314;2023-06-22T06:59:47;14.75;;;7.40;;
29934;SDS011;19905;53.370;-6.314;2023-06-22T07:02:15;12.50;;;7.03;;
29934;SDS011;19905;53.370;-6.314;2023-06-22T07:04:46;12.13;;;6.50;;
29934;SDS011;19905;53.370;-6.314;2023-06-22T07:07:16;11.07;;;7.10;;
29934;SDS011;19905;53.370;-6.314;2023-06-22T07:09:46;12.35;;;7.05;;
29934;SDS011;19905;53.370;-6.314;2023-06-22T07:12:15;11.82;;;6.72;;
29934;SDS011;19905;53.370;-6.314;2023-06-22T07:14:45;11.18;;;6.43;;
29934;SDS011;19905;53.370;-6.314;2023-06-22T07:17:15;11.25;;;6.63;;
29934;SDS011;19905;53.370;-6.314;2023-06-22T07:19:43;13.30;;;6.72;;
29934;SDS011;19905;53.370;-6.314;2023-06-22T07:22:14;11.98;;;7.15;;
29934;SDS011;19905;53.370;-6.314;2023-06-22T07:24:44;14.38;;;7.25;;
29934;SDS011;19905;53.370;-6.314;2023-06-22T07:27:13;10.70;;;6.60;;
29934;SDS011;19905;53.370;-6.314;2023-06-22T07:29:43;13.15;;;7.07;;
29934;SDS011;19905;53.370;-6.314;2023-06-22T07:32:11;9.00;;;6.68;;
29934;SDS011;19905;53.370;-6.314;2023-06-22T07:34:40;12.27;;;7.28;;
29934;SDS011;19905;53.370;-6.314;2023-06-22T07:37:12;12.35;;;7.28;;
29934;SDS011;19905;53.370;-6.314;2023-06-22T07:39:43;14.23;;;7.13;;
29934;SDS011;19905;53.370;-6.314;2023-06-22T07:42:11;12.43;;;6.88;;
29934;SDS011;19905;53.370;-6.314;2023-06-22T07:44:45;9.77;;;6.15;;
29934;SDS011;19905;53.370;-6.314;2023-06-22T07:47:20;11.30;;;5.97;;
29934;SDS011;19905;53.370;-6.314;2023-06-22T07:49:52;10.57;;;6.00;;
29934;SDS011;19905;53.370;-6.314;2023-06-22T07:52:23;13.23;;;6.40;;
29934;SDS011;19905;53.370;-6.314;2023-06-22T07:54:53;12.30;;;6.30;;
29934;SDS011;19905;53.370;-6.314;2023-06-22T07:57:22;12.35;;;5.70;;
29934;SDS011;19905;53.370;-6.314;2023-06-22T08:00:01;13.85;;;5.57;;
29934;SDS011;19905;53.370;-6.314;2023-06-22T08:02:38;15.80;;;5.32;;
29934;SDS011;19905;53.370;-6.314;2023-06-22T08:05:08;10.13;;;5.53;;
29934;SDS011;19905;53.370;-6.314;2023-06-22T08:07:48;11.93;;;5.53;;
29934;SDS011;19905;53.370;-6.314;2023-06-22T08:10:18;7.30;;;4.70;;
29934;SDS011;19905;53.370;-6.314;2023-06-22T08:12:48;12.00;;;5.38;;
29934;SDS011;19905;53.370;-6.314;2023-06-22T08:15:16;7.32;;;4.45;;
29934;SDS011;19905;53.370;-6.314;2023-06-22T08:17:47;7.65;;;4.97;;
29934;SDS011;19905;53.370;-6.314;2023-06-22T08:20:16;10.27;;;5.15;;
29934;SDS011;19905;53.370;-6.314;2023-06-22T08:22:51;11.27;;;4.72;;
29934;SDS011;19905;53.370;-6.314;2023-06-22T08:25:22;12.85;;;5.10;;
29934;SDS011;19905;53.370;-6.314;2023-06-22T08:27:52;8.45;;;5.18;;
29934;SDS011;19905;53.370;-6.314;2023-06-22T08:30:22;9.45;;;4.88;;
29934;SDS011;19905;53.370;-6.314;2023-06-22T08:32:51;7.82;;;4.70;;
29934;SDS011;19905;53.370;-6.314;2023-06-22T08:35:27;13.07;;;4.30;;
29934;SDS011;19905;53.370;-6.314;2023-06-22T08:37:59;8.32;;;4.45;;
29934;SDS011;19905;53.370;-6.314;2023-06-22T08:40:28;12.63;;;4.35;;
29934;SDS011;19905;53.370;-6.314;2023-06-22T08:42:57;8.82;;;4.38;;
29934;SDS011;19905;53.370;-6.314;2023-06-22T08:45:27;10.02;;;4.20;;
29934;SDS011;19905;53.370;-6.314;2023-06-22T08:47:58;7.72;;;4.05;;
29934;SDS011;19905;53.370;-6.314;2023-06-22T08:50:27;9.70;;;4.05;;
29934;SDS011;19905;53.370;-6.314;2023-06-22T08:52:56;12.65;;;4.60;;
29934;SDS011;19905;53.370;-6.314;2023-06-22T08:55:30;14.23;;;4.68;;
29934;SDS011;19905;53.370;-6.314;2023-06-22T08:58:00;10.82;;;4.40;;
29934;SDS011;19905;53.370;-6.314;2023-06-22T09:00:29;13.43;;;4.50;;
29934;SDS011;19905;53.370;-6.314;2023-06-22T09:02:59;9.60;;;4.18;;
29934;SDS011;19905;53.370;-6.314;2023-06-22T09:05:28;9.93;;;3.72;;
29934;SDS011;19905;53.370;-6.314;2023-06-22T09:07:57;6.55;;;4.13;;
29934;SDS011;19905;53.370;-6.314;2023-06-22T09:10:28;9.00;;;4.65;;
29934;SDS011;19905;53.370;-6.314;2023-06-22T09:12:58;9.55;;;4.32;;
29934;SDS011;19905;53.370;-6.314;2023-06-22T09:15:26;9.45;;;4.43;;
29934;SDS011;19905;53.370;-6.314;2023-06-22T09:17:56;8.75;;;4.10;;
29934;SDS011;19905;53.370;-6.314;2023-06-22T09:20:25;8.35;;;4.70;;
29934;SDS011;19905;53.370;-6.314;2023-06-22T09:23:02;9.95;;;4.68;;
29934;SDS011;19905;53.370;-6.314;2023-06-22T09:25:43;9.82;;;4.18;;
29934;SDS011;19905;53.370;-6.314;2023-06-22T09:28:24;9.40;;;4.80;;
29934;SDS011;19905;53.370;-6.314;2023-06-22T09:30:59;9.60;;;4.80;;
29934;SDS011;19905;53.370;-6.314;2023-06-22T09:33:29;11.95;;;4.88;;
29934;SDS011;19905;53.370;-6.314;2023-06-22T09:35:58;9.30;;;4.88;;
29934;SDS011;19905;53.370;-6.314;2023-06-22T09:38:28;10.23;;;4.60;;
29934;SDS011;19905;53.370;-6.314;2023-06-22T09:40:58;6.70;;;4.38;;
29934;SDS011;19905;53.370;-6.314;2023-06-22T09:43:26;10.55;;;4.70;;
29934;SDS011;19905;53.370;-6.314;2023-06-22T09:45:55;10.45;;;4.82;;
29934;SDS011;19905;53.370;-6.314;2023-06-22T09:48:24;9.93;;;4.80;;
29934;SDS011;19905;53.370;-6.314;2023-06-22T09:50:54;11.10;;;4.40;;
29934;SDS011;19905;53.370;-6.314;2023-06-22T09:53:23;9.75;;;4.57;;
29934;SDS011;19905;53.370;-6.314;2023-06-22T09:55:52;10.10;;;4.30;;
29934;SDS011;19905;53.370;-6.314;2023-06-22T09:58:22;9.45;;;4.20;;
29934;SDS011;19905;53.370;-6.314;2023-06-22T10:00:51;10.43;;;5.10;;
29934;SDS011;19905;53.370;-6.314;2023-06-22T10:03:21;10.10;;;4.10;;
29934;SDS011;19905;53.370;-6.314;2023-06-22T10:05:50;9.85;;;4.82;;
29934;SDS011;19905;53.370;-6.314;2023-06-22T10:08:19;7.57;;;4.13;;
29934;SDS011;19905;53.370;-6.314;2023-06-22T10:10:48;10.05;;;4.30;;
29934;SDS011;19905;53.370;-6.314;2023-06-22T10:13:19;10.60;;;3.97;;
29934;SDS011;19905;53.370;-6.314;2023-06-22T10:15:49;8.20;;;4.10;;
29934;SDS011;19905;53.370;-6.314;2023-06-22T10:18:18;11.63;;;4.35;;
29934;SDS011;19905;53.370;-6.314;2023-06-22T10:20:48;9.38;;;4.22;;
29934;SDS011;19905;53.370;-6.314;2023-06-22T10:23:19;10.07;;;4.03;;
29934;SDS011;19905;53.370;-6.314;2023-06-22T10:25:48;8.35;;;3.97;;
29934;SDS011;19905;53.370;-6.314;2023-06-22T10:28:17;11.82;;;4.00;;
29934;SDS011;19905;53.370;-6.314;2023-06-22T10:30:46;7.60;;;3.80;;
29934;SDS011;19905;53.370;-6.314;2023-06-22T10:33:16;9.13;;;4.10;;
29934;SDS011;19905;53.370;-6.314;2023-06-22T10:35:44;8.75;;;4.20;;
29934;SDS011;19905;53.370;-6.314;2023-06-22T10:38:13;11.23;;;3.63;;
29934;SDS011;19905;53.370;-6.314;2023-06-22T10:40:42;9.18;;;3.70;;
29934;SDS011;19905;53.370;-6.314;2023-06-22T10:43:11;8.23;;;3.67;;
29934;SDS011;19905;53.370;-6.314;2023-06-22T10:45:40;6.05;;;3.65;;
29934;SDS011;19905;53.370;-6.314;2023-06-22T10:48:08;10.13;;;4.28;;
29934;SDS011;19905;53.370;-6.314;2023-06-22T10:50:39;9.32;;;3.90;;
29934;SDS011;19905;53.370;-6.314;2023-06-22T10:53:07;8.70;;;3.60;;
29934;SDS011;19905;53.370;-6.314;2023-06-22T10:55:36;7.30;;;3.42;;
29934;SDS011;19905;53.370;-6.314;2023-06-22T10:58:22;13.15;;;3.58;;
29934;SDS011;19905;53.370;-6.314;2023-06-22T11:00:51;10.02;;;3.40;;
29934;SDS011;19905;53.370;-6.314;2023-06-22T11:03:20;8.50;;;3.25;;
29934;SDS011;19905;53.370;-6.314;2023-06-22T11:05:50;9.18;;;3.38;;
29934;SDS011;19905;53.370;-6.314;2023-06-22T11:08:18;8.30;;;3.40;;
29934;SDS011;19905;53.370;-6.314;2023-06-22T11:10:47;9.48;;;3.65;;
29934;SDS011;19905;53.370;-6.314;2023-06-22T11:13:16;9.60;;;3.60;;
29934;SDS011;19905;53.370;-6.314;2023-06-22T11:15:44;9.20;;;3.65;;
29934;SDS011;19905;53.370;-6.314;2023-06-22T11:18:13;9.13;;;3.70;;
29934;SDS011;19905;53.370;-6.314;2023-06-22T11:20:43;8.25;;;3.60;;
29934;SDS011;19905;53.370;-6.314;2023-06-22T11:23:13;9.23;;;4.18;;
29934;SDS011;19905;53.370;-6.314;2023-06-22T11:25:43;12.45;;;3.97;;
29934;SDS011;19905;53.370;-6.314;2023-06-22T11:28:13;6.97;;;3.28;;
29934;SDS011;19905;53.370;-6.314;2023-06-22T11:30:42;11.80;;;3.10;;
29934;SDS011;19905;53.370;-6.314;2023-06-22T11:33:11;11.38;;;3.13;;
29934;SDS011;19905;53.370;-6.314;2023-06-22T11:35:40;8.93;;;3.55;;
29934;SDS011;19905;53.370;-6.314;2023-06-22T11:38:08;12.15;;;3.25;;
29934;SDS011;19905;53.370;-6.314;2023-06-22T11:40:39;8.15;;;3.10;;
29934;SDS011;19905;53.370;-6.314;2023-06-22T11:43:10;9.38;;;3.40;;
29934;SDS011;19905;53.370;-6.314;2023-06-22T11:48:14;11.55;;;4.32;;
29934;SDS011;19905;53.370;-6.314;2023-06-22T11:50:45;10.82;;;3.65;;
29934;SDS011;19905;53.370;-6.314;2023-06-22T11:53:17;6.78;;;3.20;;
29934;SDS011;19905;53.370;-6.314;2023-06-22T11:55:47;7.22;;;3.40;;
29934;SDS011;19905;53.370;-6.314;2023-06-22T11:58:19;10.63;;;3.95;;
29934;SDS011;19905;53.370;-6.314;2023-06-22T12:00:50;9.43;;;4.10;;
29934;SDS011;19905;53.370;-6.314;2023-06-22T12:03:20;7.18;;;3.97;;
29934;SDS011;19905;53.370;-6.314;2023-06-22T12:05:51;9.73;;;3.70;;
29934;SDS011;19905;53.370;-6.314;2023-06-22T12:08:21;10.27;;;4.18;;
29934;SDS011;19905;53.370;-6.314;2023-06-22T12:10:54;9.70;;;4.50;;
29934;SDS011;19905;53.370;-6.314;2023-06-22T12:13:25;10.32;;;3.70;;
29934;SDS011;19905;53.370;-6.314;2023-06-22T12:15:53;11.27;;;4.10;;
29934;SDS011;19905;53.370;-6.314;2023-06-22T12:18:22;6.20;;;3.97;;
29934;SDS011;19905;53.370;-6.314;2023-06-22T12:20:51;9.98;;;4.68;;
29934;SDS011;19905;53.370;-6.314;2023-06-22T12:23:19;7.95;;;3.75;;
29934;SDS011;19905;53.370;-6.314;2023-06-22T12:25:49;7.65;;;3.55;;
29934;SDS011;19905;53.370;-6.314;2023-06-22T12:28:20;4.82;;;3.22;;
29934;SDS011;19905;53.370;-6.314;2023-06-22T12:30:50;6.72;;;3.10;;
29934;SDS011;19905;53.370;-6.314;2023-06-22T12:33:19;8.52;;;3.20;;
29934;SDS011;19905;53.370;-6.314;2023-06-22T12:35:48;5.40;;;2.92;;
29934;SDS011;19905;53.370;-6.314;2023-06-22T12:38:23;5.72;;;3.08;;
29934;SDS011;19905;53.370;-6.314;2023-06-22T12:40:52;6.90;;;3.30;;
29934;SDS011;19905;53.370;-6.314;2023-06-22T12:43:23;7.47;;;3.67;;
29934;SDS011;19905;53.370;-6.314;2023-06-22T12:45:53;7.28;;;3.20;;
29934;SDS011;19905;53.370;-6.314;2023-06-22T12:48:22;6.70;;;3.85;;
29934;SDS011;19905;53.370;-6.314;2023-06-22T12:50:52;7.68;;;4.03;;
29934;SDS011;19905;53.370;-6.314;2023-06-22T12:53:21;5.93;;;3.58;;
29934;SDS011;19905;53.370;-6.314;2023-06-22T12:55:51;8.13;;;3.55;;
29934;SDS011;19905;53.370;-6.314;2023-06-22T12:58:20;7.57;;;3.28;;
29934;SDS011;19905;53.370;-6.314;2023-06-22T13:00:50;8.15;;;2.83;;
29934;SDS011;19905;53.370;-6.314;2023-06-22T13:03:18;8.05;;;2.90;;
29934;SDS011;19905;53.370;-6.314;2023-06-22T13:05:47;5.72;;;3.40;;
29934;SDS011;19905;53.370;-6.314;2023-06-22T13:08:16;5.90;;;3.20;;
29934;SDS011;19905;53.370;-6.314;2023-06-22T13:10:45;7.25;;;2.88;;
29934;SDS011;19905;53.370;-6.314;2023-06-22T13:13:14;6.63;;;2.88;;
29934;SDS011;19905;53.370;-6.314;2023-06-22T13:15:43;9.85;;;3.20;;
29934;SDS011;19905;53.370;-6.314;2023-06-22T13:18:14;6.88;;;3.92;;
29934;SDS011;19905;53.370;-6.314;2023-06-22T13:20:43;9.20;;;5.25;;
29934;SDS011;19905;53.370;-6.314;2023-06-22T13:23:14;9.23;;;5.82;;
29934;SDS011;19905;53.370;-6.314;2023-06-22T13:25:43;12.82;;;5.25;;
29934;SDS011;19905;53.370;-6.314;2023-06-22T13:28:11;9.15;;;5.65;;
29934;SDS011;19905;53.370;-6.314;2023-06-22T13:30:53;9.70;;;5.30;;
29934;SDS011;19905;53.370;-6.314;2023-06-22T13:33:23;8.80;;;4.82;;
29934;SDS011;19905;53.370;-6.314;2023-06-22T13:35:52;11.88;;;4.30;;
29934;SDS011;19905;53.370;-6.314;2023-06-22T13:38:22;9.25;;;4.68;;
29934;SDS011;19905;53.370;-6.314;2023-06-22T13:40:51;12.30;;;6.88;;
29934;SDS011;19905;53.370;-6.314;2023-06-22T13:43:22;10.00;;;4.32;;
29934;SDS011;19905;53.370;-6.314;2023-06-22T13:45:52;9.55;;;4.82;;
29934;SDS011;19905;53.370;-6.314;2023-06-22T13:48:20;7.75;;;4.63;;
29934;SDS011;19905;53.370;-6.314;2023-06-22T13:50:51;13.18;;;5.25;;
29934;SDS011;19905;53.370;-6.314;2023-06-22T13:53:20;11.65;;;6.05;;
29934;SDS011;19905;53.370;-6.314;2023-06-22T13:55:49;8.88;;;5.78;;
29934;SDS011;19905;53.370;-6.314;2023-06-22T13:58:17;10.40;;;5.88;;
29934;SDS011;19905;53.370;-6.314;2023-06-22T14:00:48;8.70;;;5.80;;
29934;SDS011;19905;53.370;-6.314;2023-06-22T14:03:16;9.35;;;5.22;;
29934;SDS011;19905;53.370;-6.314;2023-06-22T14:05:45;9.13;;;4.60;;
29934;SDS011;19905;53.370;-6.314;2023-06-22T14:08:16;10.88;;;4.40;;
29934;SDS011;19905;53.370;-6.314;2023-06-22T14:11:06;5.63;;;4.13;;
29934;SDS011;19905;53.370;-6.314;2023-06-22T14:13:35;9.65;;;5.28;;
29934;SDS011;19905;53.370;-6.314;2023-06-22T14:16:05;8.55;;;4.75;;
29934;SDS011;19905;53.370;-6.314;2023-06-22T14:18:35;8.07;;;5.57;;
29934;SDS011;19905;53.370;-6.314;2023-06-22T14:21:04;7.20;;;4.28;;
29934;SDS011;19905;53.370;-6.314;2023-06-22T14:23:34;11.57;;;5.00;;
29934;SDS011;19905;53.370;-6.314;2023-06-22T14:26:04;14.52;;;5.90;;
29934;SDS011;19905;53.370;-6.314;2023-06-22T14:28:34;8.55;;;5.95;;
29934;SDS011;19905;53.370;-6.314;2023-06-22T14:31:03;14.63;;;5.32;;
29934;SDS011;19905;53.370;-6.314;2023-06-22T14:33:33;9.63;;;4.88;;
29934;SDS011;19905;53.370;-6.314;2023-06-22T14:36:03;9.90;;;5.38;;
29934;SDS011;19905;53.370;-6.314;2023-06-22T14:38:35;14.50;;;5.85;;
29934;SDS011;19905;53.370;-6.314;2023-06-22T14:41:06;12.93;;;5.90;;
29934;SDS011;19905;53.370;-6.314;2023-06-22T14:43:43;10.38;;;6.50;;
29934;SDS011;19905;53.370;-6.314;2023-06-22T14:46:14;10.15;;;5.70;;
29934;SDS011;19905;53.370;-6.314;2023-06-22T14:48:43;10.93;;;6.03;;